createdAt,value
2023-03-25T00:02:27.543Z,100448.38
2023-03-25T00:05:29.620Z,100439.19
2023-03-25T00:08:32.383Z,100435.00
2023-03-25T00:11:34.423Z,100432.50
2023-03-25T00:14:36.397Z,100429.97
2023-03-25T00:17:38.799Z,100433.47
2023-03-25T00:20:41.537Z,100426.38
2023-03-25T00:23:43.477Z,100426.66
2023-03-25T00:26:46.281Z,100419.50
2023-03-25T00:29:48.349Z,100417.63
2023-03-25T00:32:52.849Z,100413.44
2023-03-25T00:35:59.449Z,100406.38
2023-03-25T00:39:01.502Z,100396.94
2023-03-25T00:42:03.669Z,100400.94
2023-03-25T00:45:06.505Z,100395.69
2023-03-25T00:48:08.484Z,100394.25
2023-03-25T00:51:14.520Z,100389.84
2023-03-25T00:54:17.132Z,100397.16
2023-03-25T00:57:19.039Z,100390.69
2023-03-25T01:00:21.042Z,100388.38
2023-03-25T01:03:24.324Z,100389.41
2023-03-25T01:06:29.111Z,100391.25
2023-03-25T01:09:31.409Z,100387.97
2023-03-25T01:12:34.199Z,100390.25
2023-03-25T01:15:36.244Z,100376.03
2023-03-25T01:18:38.910Z,100377.72
2023-03-25T01:21:41.043Z,100374.38
2023-03-25T01:24:43.274Z,100376.03
2023-03-25T01:27:46.070Z,100371.28
2023-03-25T01:30:48.172Z,100372.72
2023-03-25T01:33:50.196Z,100373.13
2023-03-25T01:36:56.015Z,100376.25
2023-03-25T01:39:58.035Z,100371.00
2023-03-25T01:43:00.104Z,100361.63
2023-03-25T01:46:02.374Z,100358.09
2023-03-25T01:49:07.427Z,100361.22
2023-03-25T01:52:11.802Z,100357.25
2023-03-25T01:55:14.219Z,100360.78
2023-03-25T01:58:18.460Z,100361.41
2023-03-25T02:01:22.523Z,100364.09
2023-03-25T02:04:59.219Z,100361.00
2023-03-25T02:08:03.502Z,100357.44
2023-03-25T02:11:06.962Z,100358.44
2023-03-25T02:14:11.218Z,100357.81
2023-03-25T02:17:18.892Z,100357.19
2023-03-25T02:20:23.864Z,100347.38
2023-03-25T02:23:44.819Z,100335.88
2023-03-25T02:26:56.559Z,100330.66
2023-03-25T02:30:13.691Z,100313.53
2023-03-25T02:33:27.817Z,100311.47
2023-03-25T02:36:48.876Z,100316.44
2023-03-25T02:39:55.001Z,100311.00
2023-03-25T02:43:15.903Z,100310.59
2023-03-25T02:46:18.724Z,100314.13
2023-03-25T02:49:25.941Z,100311.38
2023-03-25T02:52:29.940Z,100297.63
2023-03-25T02:55:33.842Z,100288.69
2023-03-25T02:58:36.158Z,100300.72
2023-03-25T03:01:38.676Z,100294.44
2023-03-25T03:04:50.778Z,100293.78
2023-03-25T03:07:57.711Z,100280.91
2023-03-25T03:11:10.945Z,100284.00
2023-03-25T03:14:19.253Z,100294.00
2023-03-25T03:17:22.413Z,100292.34
2023-03-25T03:20:37.450Z,100289.84
2023-03-25T03:23:42.156Z,100296.38
2023-03-25T03:26:53.441Z,100290.09
2023-03-25T03:30:04.591Z,100292.81
2023-03-25T03:33:28.071Z,100295.53
2023-03-25T03:36:32.430Z,100296.38
2023-03-25T03:39:36.251Z,100286.41
2023-03-25T03:42:41.891Z,100291.97
2023-03-25T03:45:46.693Z,100299.03
2023-03-25T03:48:52.548Z,100300.63
2023-03-25T03:51:59.037Z,100299.41
2023-03-25T03:55:03.153Z,100296.69
2023-03-25T03:58:23.623Z,100301.06
2023-03-25T04:01:28.162Z,100295.88
2023-03-25T04:04:30.428Z,100292.34
2023-03-25T04:07:57.149Z,100291.06
2023-03-25T04:11:03.916Z,100282.94
2023-03-25T04:14:07.639Z,100280.53
2023-03-25T04:17:09.714Z,100285.75
2023-03-25T04:20:15.772Z,100278.84
2023-03-25T04:23:17.725Z,100270.09
2023-03-25T04:26:20.071Z,100280.06
2023-03-25T04:29:21.908Z,100286.47
2023-03-25T04:32:24.406Z,100286.56
2023-03-25T04:35:26.872Z,100282.41
2023-03-25T04:38:29.781Z,100286.19
2023-03-25T04:41:33.750Z,100287.44
2023-03-25T04:44:39.398Z,100293.28
2023-03-25T04:47:47.347Z,100299.72
2023-03-25T04:50:51.885Z,100290.53
2023-03-25T04:53:53.895Z,100306.16
2023-03-25T04:56:56.558Z,100306.78
2023-03-25T04:59:58.449Z,100303.03
2023-03-25T05:03:02.104Z,100303.88
2023-03-25T05:06:04.301Z,100301.41
2023-03-25T05:09:07.234Z,100302.00
2023-03-25T05:12:11.553Z,100298.69
2023-03-25T05:15:14.218Z,100292.19
2023-03-25T05:18:16.865Z,100289.72
2023-03-25T05:21:18.858Z,100294.25
2023-03-25T05:24:20.855Z,100287.84
2023-03-25T05:27:22.818Z,100294.28
2023-03-25T05:30:24.841Z,100289.91
2023-03-25T05:33:27.256Z,100287.19
2023-03-25T05:36:29.849Z,100285.09
2023-03-25T05:39:31.696Z,100285.56
2023-03-25T05:42:34.982Z,100288.69
2023-03-25T05:45:38.224Z,100292.63
2023-03-25T05:48:41.547Z,100288.06
2023-03-25T05:51:45.332Z,100287.00
2023-03-25T05:54:51.924Z,100286.56
2023-03-25T05:57:54.129Z,100298.25
2023-03-25T06:00:56.045Z,100296.59
2023-03-25T06:04:01.157Z,100300.56
2023-03-25T06:07:04.287Z,100292.63
2023-03-25T06:10:06.515Z,100294.53
2023-03-25T06:13:08.592Z,100291.59
2023-03-25T06:16:10.682Z,100285.53
2023-03-25T06:19:12.724Z,100290.34
2023-03-25T06:22:15.012Z,100290.34
2023-03-25T06:25:19.192Z,100299.91
2023-03-25T06:28:21.328Z,100294.94
2023-03-25T06:31:33.990Z,100294.91
2023-03-25T06:34:36.461Z,100297.22
2023-03-25T06:37:39.054Z,100292.44
2023-03-25T06:40:47.941Z,100286.16
2023-03-25T06:43:50.063Z,100284.03
2023-03-25T06:47:10.334Z,100281.75
2023-03-25T06:50:18.492Z,100275.28
2023-03-25T06:53:20.603Z,100263.00
2023-03-25T06:56:22.646Z,100237.72
2023-03-25T06:59:25.103Z,100232.97
2023-03-25T07:02:28.347Z,100250.38
2023-03-25T07:05:30.404Z,100247.94
2023-03-25T07:08:32.626Z,100245.84
2023-03-25T07:11:35.128Z,100239.41
2023-03-25T07:14:37.068Z,100241.78
2023-03-25T07:17:39.305Z,100245.72
2023-03-25T07:20:46.186Z,100251.28
2023-03-25T07:23:48.963Z,100246.53
2023-03-25T07:26:51.030Z,100237.28
2023-03-25T07:29:56.054Z,100224.66
2023-03-25T07:32:58.268Z,100230.34
2023-03-25T07:36:00.384Z,100212.75
2023-03-25T07:39:02.452Z,100208.09
2023-03-25T07:42:05.667Z,100206.75
2023-03-25T07:45:43.615Z,100212.63
2023-03-25T07:48:46.999Z,100212.72
2023-03-25T07:51:48.913Z,100213.31
2023-03-25T07:54:51.064Z,100212.06
2023-03-25T07:57:53.083Z,100198.53
2023-03-25T08:00:56.743Z,100189.78
2023-03-25T08:03:58.708Z,100188.63
2023-03-25T08:07:01.026Z,100180.53
2023-03-25T08:10:02.955Z,100164.69
2023-03-25T08:13:06.979Z,100152.09
2023-03-25T08:16:12.441Z,100138.34
2023-03-25T08:19:14.635Z,100126.72
2023-03-25T08:22:16.609Z,100116.19
2023-03-25T08:25:18.930Z,100112.06
2023-03-25T08:28:23.367Z,100111.84
2023-03-25T08:31:26.781Z,100118.31
2023-03-25T08:34:30.053Z,100105.09
2023-03-25T08:37:35.460Z,100124.38
2023-03-25T08:40:37.454Z,100100.81
2023-03-25T08:43:39.486Z,100126.16
2023-03-25T08:46:41.473Z,100123.91
2023-03-25T08:49:43.519Z,100105.69
2023-03-25T08:52:46.185Z,100096.78
2023-03-25T08:55:51.473Z,100098.16
2023-03-25T08:58:53.707Z,100092.47
2023-03-25T09:01:57.205Z,100100.66
2023-03-25T09:05:00.422Z,100091.72
2023-03-25T09:08:02.420Z,100083.84
2023-03-25T09:11:04.420Z,100086.59
2023-03-25T09:14:06.430Z,100086.03
2023-03-25T09:17:10.267Z,100077.16
2023-03-25T09:20:12.605Z,100080.94
2023-03-25T09:23:17.236Z,100080.72
2023-03-25T09:26:19.714Z,100075.72
2023-03-25T09:29:23.854Z,100073.97
2023-03-25T09:32:25.963Z,100057.09
2023-03-25T09:35:27.893Z,100057.09
2023-03-25T09:38:29.897Z,100059.34
2023-03-25T09:41:47.137Z,100050.31
2023-03-25T09:45:11.483Z,100040.44
2023-03-25T09:48:29.158Z,100042.34
2023-03-25T09:55:03.129Z,100048.16
2023-03-25T09:58:29.141Z,100033.09
2023-03-25T10:01:37.780Z,100032.56
2023-03-25T10:04:48.200Z,100011.78
2023-03-25T10:08:01.205Z,100010.16
2023-03-25T10:11:21.870Z,100008.16
2023-03-25T10:14:37.578Z,100006.06
2023-03-25T10:17:56.886Z,99999.94
2023-03-25T10:21:01.683Z,99992.53
2023-03-25T10:24:25.139Z,99973.00
2023-03-25T10:27:53.872Z,99975.31
2023-03-25T10:30:56.563Z,99970.75
2023-03-25T10:34:01.624Z,99966.09
2023-03-25T10:37:12.711Z,99965.25
2023-03-25T10:40:27.280Z,99966.94
2023-03-25T10:43:32.152Z,99954.28
2023-03-25T10:46:49.679Z,99953.16
2023-03-25T10:49:52.507Z,99945.94
2023-03-25T10:54:14.208Z,99945.56
2023-03-25T10:57:22.421Z,99944.97
2023-03-25T11:00:26.544Z,99932.38
2023-03-25T11:03:35.604Z,99924.94
2023-03-25T11:06:46.048Z,99921.00
2023-03-25T11:09:53.575Z,99930.28
2023-03-25T11:12:58.676Z,99912.16
2023-03-25T11:16:05.527Z,99912.06
2023-03-25T11:19:25.592Z,99921.06
2023-03-25T11:22:32.011Z,99922.66
2023-03-25T11:25:42.061Z,99913.31
2023-03-25T11:29:06.673Z,99906.69
2023-03-25T11:32:22.986Z,99913.34
2023-03-25T11:35:29.944Z,99897.97
2023-03-25T11:38:36.774Z,99897.59
2023-03-25T11:41:38.752Z,99889.22
2023-03-25T11:44:41.416Z,99891.56
2023-03-25T11:47:43.909Z,99878.25
2023-03-25T11:50:57.290Z,99871.44
2023-03-25T11:54:00.666Z,99858.81
2023-03-25T11:57:10.195Z,99848.66
2023-03-25T12:00:21.019Z,99841.50
2023-03-25T12:03:26.836Z,99842.88
2023-03-25T12:06:30.234Z,99832.44
2023-03-25T12:09:32.249Z,99833.75
2023-03-25T12:12:55.273Z,99827.38
2023-03-25T12:16:03.279Z,99825.97
2023-03-25T12:19:28.276Z,99831.66
2023-03-25T12:22:45.857Z,99824.22
2023-03-25T12:25:57.197Z,99813.78
2023-03-25T12:28:59.074Z,99804.19
2023-03-25T12:32:01.565Z,99813.47
2023-03-25T12:35:14.516Z,99792.34
2023-03-25T12:38:28.652Z,99787.69
2023-03-25T12:41:49.008Z,99795.59
2023-03-25T12:44:59.674Z,99783.75
2023-03-25T12:48:07.647Z,99786.59
2023-03-25T12:51:15.331Z,99787.97
2023-03-25T12:54:29.175Z,99783.84
2023-03-25T12:57:43.071Z,99783.03
2023-03-25T13:00:45.022Z,99769.31
2023-03-25T13:04:05.772Z,99770.94
2023-03-25T13:07:12.139Z,99769.84
2023-03-25T13:10:22.236Z,99767.38
2023-03-25T13:13:26.149Z,99759.69
2023-03-25T13:16:35.936Z,99750.06
2023-03-25T13:19:41.342Z,99745.28
2023-03-25T13:22:47.149Z,99744.41
2023-03-25T13:25:49.157Z,99752.28
2023-03-25T13:28:50.953Z,99744.41
2023-03-25T13:31:54.065Z,99739.19
2023-03-25T13:35:02.901Z,99742.06
2023-03-25T13:38:10.651Z,99727.06
2023-03-25T13:41:17.733Z,99724.69
2023-03-25T13:44:27.564Z,99728.84
2023-03-25T13:47:29.601Z,99717.94
2023-03-25T13:50:32.738Z,99710.03
2023-03-25T13:53:46.653Z,99717.41
2023-03-25T13:57:13.814Z,99721.97
2023-03-25T14:00:34.599Z,99715.00
2023-03-25T14:04:09.411Z,99722.53
2023-03-25T14:07:17.165Z,99727.38
2023-03-25T14:10:28.407Z,99720.47
2023-03-25T14:13:32.809Z,99730.50
2023-03-25T14:16:44.293Z,99739.22
2023-03-25T14:19:55.366Z,99734.22
2023-03-25T14:22:59.470Z,99740.00
2023-03-25T14:26:05.360Z,99735.38
2023-03-25T14:29:21.516Z,99746.03
2023-03-25T14:32:23.727Z,99741.97
2023-03-25T14:35:35.138Z,99743.28
2023-03-25T14:38:53.674Z,99747.66
2023-03-25T14:42:02.570Z,99748.06
2023-03-25T14:45:26.869Z,99744.78
2023-03-25T14:48:30.789Z,99752.13
2023-03-25T14:51:37.435Z,99746.66
2023-03-25T14:54:41.547Z,99752.41
2023-03-25T14:57:44.456Z,99754.84
2023-03-25T15:00:55.221Z,99757.72
2023-03-25T15:04:29.556Z,99762.00
2023-03-25T15:07:39.583Z,99764.38
2023-03-25T15:10:43.301Z,99767.81
2023-03-25T15:13:53.043Z,99773.72
2023-03-25T15:16:57.178Z,99773.34
2023-03-25T15:19:59.137Z,99778.97
2023-03-25T15:23:19.583Z,99780.47
2023-03-25T15:26:24.329Z,99786.31
2023-03-25T15:29:29.060Z,99797.75
2023-03-25T15:32:47.350Z,99794.94
2023-03-25T15:36:02.273Z,99803.09
2023-03-25T15:39:06.129Z,99805.72
2023-03-25T15:42:10.987Z,99800.84
2023-03-25T15:45:31.481Z,99801.00
2023-03-25T15:48:53.694Z,99810.28
2023-03-25T15:52:13.712Z,99817.06
2023-03-25T15:55:19.592Z,99823.28
2023-03-25T15:58:25.754Z,99830.47
2023-03-25T16:01:38.812Z,99827.09
2023-03-25T16:04:46.787Z,99839.72
2023-03-25T16:07:49.357Z,99832.78
2023-03-25T16:10:51.540Z,99835.50
2023-03-25T16:14:08.494Z,99842.75
2023-03-25T16:17:12.608Z,99844.94
2023-03-25T16:20:19.364Z,99851.94
2023-03-25T16:23:23.324Z,99857.19
2023-03-25T16:26:38.913Z,99875.94
2023-03-25T16:29:47.836Z,99879.72
2023-03-25T16:32:50.266Z,99876.91
2023-03-25T16:36:04.967Z,99880.25
2023-03-25T16:39:10.102Z,99885.63
2023-03-25T16:42:21.256Z,99882.69
2023-03-25T16:45:23.375Z,99884.38
2023-03-25T16:48:33.675Z,99884.97
2023-03-25T16:51:38.093Z,99882.00
2023-03-25T16:54:47.193Z,99877.50
2023-03-25T16:57:49.336Z,99868.03
2023-03-25T17:00:53.597Z,99869.34
2023-03-25T17:04:08.017Z,99884.38
2023-03-25T17:07:14.599Z,99910.31
2023-03-25T17:10:22.143Z,99910.31
2023-03-25T17:13:29.910Z,99908.34
2023-03-25T17:16:32.863Z,99908.31
2023-03-25T17:19:39.084Z,99908.69
2023-03-25T17:22:41.084Z,99905.47
2023-03-25T17:25:59.479Z,99908.47
2023-03-25T17:29:06.410Z,99904.53
2023-03-25T17:32:17.108Z,99915.28
2023-03-25T17:35:27.702Z,99912.22
2023-03-25T17:38:34.070Z,99909.94
2023-03-25T17:41:37.777Z,99910.41
2023-03-25T17:44:41.327Z,99912.22
2023-03-25T17:47:43.415Z,99915.03
2023-03-25T17:50:52.817Z,99923.22
2023-03-25T17:53:54.920Z,99920.50
2023-03-25T17:56:59.002Z,99927.13
2023-03-25T18:00:01.066Z,99938.16
2023-03-25T18:03:19.115Z,99938.78
2023-03-25T18:06:21.677Z,99940.66
2023-03-25T18:09:24.590Z,99928.34
2023-03-25T18:12:27.229Z,99942.41
2023-03-25T18:15:29.308Z,99940.03
2023-03-25T18:18:32.112Z,99942.06
2023-03-25T18:21:34.236Z,99947.41
2023-03-25T18:24:36.375Z,99952.97
2023-03-25T18:27:43.828Z,99948.47
2023-03-25T18:30:51.014Z,99946.94
2023-03-25T18:33:54.302Z,99937.94
2023-03-25T18:36:56.489Z,99939.25
2023-03-25T18:39:58.743Z,99936.97
2023-03-25T18:43:00.806Z,99934.56
2023-03-25T18:46:04.416Z,99932.56
2023-03-25T18:49:16.917Z,99932.56
2023-03-25T18:52:18.788Z,99943.94
2023-03-25T18:55:20.754Z,99937.06
2023-03-25T18:58:23.925Z,99931.38
2023-03-25T19:01:26.798Z,99926.03
2023-03-25T19:04:29.709Z,99934.47
2023-03-25T19:07:31.614Z,99929.94
2023-03-25T19:10:34.606Z,99926.66
2023-03-25T19:13:37.017Z,99935.28
2023-03-25T19:16:39.056Z,99944.16
2023-03-25T19:19:41.392Z,99939.66
2023-03-25T19:22:43.550Z,99942.00
2023-03-25T19:25:46.672Z,99940.56
2023-03-25T19:28:48.774Z,99943.53
2023-03-25T19:31:50.882Z,99955.72
2023-03-25T19:34:56.709Z,99968.44
2023-03-25T19:37:58.770Z,99972.22
2023-03-25T19:41:06.440Z,99980.41
2023-03-25T19:44:10.566Z,99987.03
2023-03-25T19:47:12.997Z,99983.47
2023-03-25T19:50:17.694Z,99981.00
2023-03-25T19:53:19.764Z,99982.28
2023-03-25T19:56:22.076Z,99978.75
2023-03-25T19:59:24.041Z,99993.06
2023-03-25T20:02:26.282Z,100001.44
2023-03-25T20:05:31.769Z,100017.38
2023-03-25T20:08:34.512Z,100009.50
2023-03-25T20:11:36.531Z,100022.31
2023-03-25T20:15:51.648Z,100023.81
2023-03-25T20:19:06.350Z,100026.06
2023-03-25T20:22:24.261Z,100028.59
2023-03-25T20:25:26.786Z,100023.34
2023-03-25T20:28:32.112Z,100031.22
2023-03-25T20:31:34.382Z,100035.50
2023-03-25T20:34:38.259Z,100044.13
2023-03-25T20:37:41.316Z,100042.00
2023-03-25T20:40:45.241Z,100048.50
2023-03-25T20:43:47.296Z,100037.84
2023-03-25T20:46:50.560Z,100032.03
2023-03-25T20:49:52.692Z,100035.28
2023-03-25T20:52:54.728Z,100039.13
2023-03-25T20:55:57.146Z,100047.72
2023-03-25T20:58:59.100Z,100040.59
2023-03-25T21:02:01.177Z,100032.44
2023-03-25T21:05:03.736Z,100037.06
2023-03-25T21:08:06.336Z,100030.13
2023-03-25T21:11:08.336Z,100037.06
2023-03-25T21:14:11.747Z,100036.28
2023-03-25T21:17:13.693Z,100045.66
2023-03-25T21:20:15.727Z,100038.75
2023-03-25T21:23:20.366Z,100049.00
2023-03-25T21:26:22.995Z,100043.56
2023-03-25T21:29:24.936Z,100035.22
2023-03-25T21:32:27.089Z,100027.31
2023-03-25T21:35:29.436Z,100030.47
2023-03-25T21:38:31.573Z,100027.16
2023-03-25T21:41:34.069Z,100023.22
2023-03-25T21:44:35.919Z,100024.47
2023-03-25T21:47:38.035Z,100024.28
2023-03-25T21:50:40.127Z,100026.63
2023-03-25T21:53:46.505Z,100023.75
2023-03-25T21:56:52.095Z,100022.50
2023-03-25T21:59:55.373Z,100023.91
2023-03-25T22:02:58.721Z,100031.03
2023-03-25T22:06:08.427Z,100033.13
2023-03-25T22:09:10.394Z,100039.38
2023-03-25T22:12:12.308Z,100042.78
2023-03-25T22:15:14.189Z,100043.44
2023-03-25T22:18:16.087Z,100045.97
2023-03-25T22:21:19.735Z,100038.88
2023-03-25T22:24:21.696Z,100040.59
2023-03-25T22:27:23.637Z,100041.25
2023-03-25T22:30:25.494Z,100052.78
2023-03-25T22:33:27.559Z,100046.97
2023-03-25T22:36:31.000Z,100046.56
2023-03-25T22:39:32.988Z,100041.53
2023-03-25T22:42:38.792Z,100038.44
2023-03-25T22:45:40.885Z,100046.59
2023-03-25T22:48:42.949Z,100045.59
2023-03-25T22:51:44.870Z,100044.44
2023-03-25T22:54:46.861Z,100041.16
2023-03-25T22:57:49.425Z,100046.66
2023-03-25T23:00:51.595Z,100045.56
2023-03-25T23:03:53.957Z,100047.47
2023-03-25T23:07:05.027Z,100049.06
2023-03-25T23:10:10.192Z,100060.63
2023-03-25T23:13:12.154Z,100055.47
2023-03-25T23:16:15.794Z,100062.44
2023-03-25T23:19:17.806Z,100062.91
2023-03-25T23:22:20.063Z,100056.84
2023-03-25T23:25:21.975Z,100050.59
2023-03-25T23:28:27.029Z,100061.16
2023-03-25T23:31:34.303Z,100069.19
2023-03-25T23:34:36.793Z,100069.44
2023-03-25T23:37:41.685Z,100074.88
2023-03-25T23:40:43.602Z,100071.09
2023-03-25T23:43:46.830Z,100080.75
2023-03-25T23:46:51.294Z,100077.56
2023-03-25T23:49:58.027Z,100085.88
2023-03-25T23:53:01.679Z,100083.59
2023-03-25T23:56:03.857Z,100089.03
2023-03-25T23:59:06.797Z,100089.28
